Time;durP1;ratioP1;P1;durP2;ratioP2;P2;SDS_P1;SDS_P2;PMS_P1;PMS_P2;Temp;Humidity;BMP_temperature;BMP_pressure;BME280_temperature;BME280_humidity;BME280_pressure;Samples;Min_cycle;Max_cycle;Signal;HPM_P1;HPM_P2
2021/03/21 00:02:18;;;;;;;6.85;4.35;;;;;;;8.69;33.86;101727.13;5010193;28;20391;-63
2021/03/21 00:04:45;;;;;;;6.15;4.07;;;;;;;8.68;34.11;101729.81;5009306;28;20061;-63
2021/03/21 00:07:11;;;;;;;4.75;3.97;;;;;;;8.67;33.99;101721.09;5012321;28;20112;-63
2021/03/21 00:09:37;;;;;;;7.43;4.50;;;;;;;8.67;34.15;101723.69;5012103;28;20100;-63
2021/03/21 00:12:04;;;;;;;6.45;4.68;;;;;;;8.65;34.27;101722.91;5012019;28;20049;-63
2021/03/21 00:14:31;;;;;;;4.93;4.40;;;;;;;8.61;34.30;101724.78;5011818;28;20103;-63
2021/03/21 00:17:02;;;;;;;5.80;4.60;;;;;;;8.59;34.34;101725.72;5011206;28;20042;-63
2021/03/21 00:19:28;;;;;;;5.82;3.95;;;;;;;8.57;34.35;101727.53;5009809;28;20069;-64
2021/03/21 00:21:54;;;;;;;5.93;3.78;;;;;;;8.56;34.44;101724.06;5012496;28;20058;-63
2021/03/21 00:24:20;;;;;;;6.25;3.78;;;;;;;8.52;34.40;101712.00;5012419;28;20054;-63
2021/03/21 00:26:56;;;;;;;5.72;4.38;;;;;;;8.52;34.43;101716.34;5012390;28;20060;-63
2021/03/21 00:29:22;;;;;;;5.95;4.20;;;;;;;8.52;34.49;101712.00;5012352;28;20046;-64
2021/03/21 00:31:48;;;;;;;5.75;4.50;;;;;;;8.52;34.35;101713.75;5012799;28;20046;-63
2021/03/21 00:34:15;;;;;;;4.85;3.95;;;;;;;8.52;34.49;101713.75;5010406;28;20383;-65
2021/03/21 00:36:41;;;;;;;5.35;4.15;;;;;;;8.51;34.51;101710.28;5012253;28;20092;-63
2021/03/21 00:39:07;;;;;;;6.15;4.07;;;;;;;8.49;34.54;101696.38;5012431;28;20046;-64
2021/03/21 00:41:33;;;;;;;5.82;4.40;;;;;;;8.45;34.52;101700.81;5012251;28;20101;-63
2021/03/21 00:44:00;;;;;;;5.68;4.35;;;;;;;8.44;34.59;101695.66;5012316;28;20041;-64
2021/03/21 00:46:26;;;;;;;4.90;4.13;;;;;;;8.42;34.42;101695.72;5012142;28;20050;-63
2021/03/21 00:48:53;;;;;;;4.88;3.92;;;;;;;8.41;34.70;101691.38;5012380;28;20422;-63
2021/03/21 00:51:19;;;;;;;7.22;4.22;;;;;;;8.41;34.25;101680.91;5011058;28;20046;-64
2021/03/21 00:53:46;;;;;;;6.05;4.50;;;;;;;8.40;34.41;101688.81;5011973;28;20046;-63
2021/03/21 00:56:27;;;;;;;6.45;4.07;;;;;;;8.40;34.34;101687.03;5012102;28;20115;-64
2021/03/21 00:58:54;;;;;;;6.50;4.30;;;;;;;8.39;34.48;101677.47;5012019;28;20046;-63
2021/03/21 01:01:20;;;;;;;4.95;3.88;;;;;;;8.41;34.32;101685.31;5011862;28;20046;-63
2021/03/21 01:03:47;;;;;;;4.75;4.10;;;;;;;8.38;34.29;101681.03;5011720;28;20050;-63
2021/03/21 01:06:14;;;;;;;6.05;4.15;;;;;;;8.37;34.30;101681.94;5015823;28;20065;-67
2021/03/21 01:08:40;;;;;;;5.22;4.03;;;;;;;8.36;34.35;101672.34;5014659;28;20096;-63
2021/03/21 01:11:17;;;;;;;5.68;4.13;;;;;;;8.34;34.20;101680.25;5015627;28;20490;-64
2021/03/21 01:13:44;;;;;;;6.15;4.22;;;;;;;8.33;34.15;101680.31;5015570;28;20052;-64
2021/03/21 01:16:16;;;;;;;5.80;4.57;;;;;;;8.30;34.26;101673.44;5015549;28;20096;-63
2021/03/21 01:18:42;;;;;;;7.60;5.25;;;;;;;8.29;34.09;101671.72;5015501;28;20133;-63
2021/03/21 01:21:12;;;;;;;8.18;5.40;;;;;;;8.30;33.94;101669.94;5015619;28;20108;-64
2021/03/21 01:23:39;;;;;;;9.32;6.18;;;;;;;8.28;33.90;101670.00;5014470;28;20173;-64
2021/03/21 01:26:05;;;;;;;7.93;5.70;;;;;;;8.29;34.04;101660.38;5015338;28;20065;-64
2021/03/21 01:28:35;;;;;;;8.18;5.68;;;;;;;8.28;33.98;101658.69;5015204;28;20045;-64
2021/03/21 01:31:04;;;;;;;7.50;5.35;;;;;;;8.27;33.99;101659.59;5015155;28;20092;-63
2021/03/21 01:33:38;;;;;;;6.07;4.30;;;;;;;8.27;34.22;101659.59;5014517;28;20410;-64
2021/03/21 01:36:12;;;;;;;7.70;4.53;;;;;;;8.24;34.09;101657.94;5015155;28;20058;-64
2021/03/21 01:38:38;;;;;;;7.38;4.70;;;;;;;8.23;34.24;101647.50;5014451;28;20111;-64
2021/03/21 01:41:07;;;;;;;8.57;4.90;;;;;;;8.21;34.27;101650.16;5014999;28;20395;-64
2021/03/21 01:43:37;;;;;;;7.03;4.82;;;;;;;8.19;34.26;101649.38;5014917;28;20100;-63
2021/03/21 01:46:05;;;;;;;9.02;4.88;;;;;;;8.17;34.29;101646.78;5014989;28;20062;-63
2021/03/21 01:48:48;;;;;;;5.85;4.22;;;;;;;8.15;34.37;101638.16;5014853;28;20073;-64
2021/03/21 01:51:25;;;;;;;5.50;4.10;;;;;;;8.14;34.39;101643.44;5014919;28;20201;-63
2021/03/21 01:53:56;;;;;;;4.85;3.88;;;;;;;8.11;34.21;101644.41;5015044;28;20053;-64
2021/03/21 01:56:25;;;;;;;5.38;4.55;;;;;;;8.08;34.29;101639.25;5013911;28;20065;-64
2021/03/21 01:59:00;;;;;;;7.43;4.68;;;;;;;8.07;34.12;101634.91;5013848;28;20108;-63
2021/03/21 02:01:29;;;;;;;5.32;3.88;;;;;;;8.07;34.21;101636.69;5014796;28;20058;-64
2021/03/21 02:03:57;;;;;;;5.03;4.15;;;;;;;8.05;34.17;101631.53;5014673;28;20561;-63
2021/03/21 02:06:29;;;;;;;6.25;3.67;;;;;;;8.04;34.37;101640.25;5014792;28;20053;-63
2021/03/21 02:09:23;;;;;;;4.43;3.80;;;;;;;8.03;34.27;101635.94;5014790;28;20128;-63
2021/03/21 02:12:26;;;;;;;5.63;3.63;;;;;;;8.00;34.43;101630.81;5014402;28;20053;-64
2021/03/21 02:15:26;;;;;;;5.53;3.92;;;;;;;7.97;34.38;101631.78;5013698;28;20112;-63
2021/03/21 02:18:06;;;;;;;5.38;4.32;;;;;;;7.95;34.27;101625.72;5013957;28;20486;-64
2021/03/21 02:20:35;;;;;;;5.75;3.95;;;;;;;7.92;34.47;101614.50;5014479;28;20076;-63
2021/03/21 02:23:07;;;;;;;5.32;4.18;;;;;;;7.93;34.41;101621.44;5014424;28;20041;-63
2021/03/21 02:25:43;;;;;;;6.55;4.28;;;;;;;7.91;34.28;101612.78;5014344;28;20057;-63
2021/03/21 02:28:11;;;;;;;6.65;4.20;;;;;;;7.89;34.45;101622.44;5014341;28;20092;-64
2021/03/21 02:30:41;;;;;;;6.38;4.30;;;;;;;7.85;34.53;101619.91;5013671;28;20092;-63
2021/03/21 02:33:23;;;;;;;6.20;4.78;;;;;;;7.83;34.70;101631.31;5009756;28;20049;-63
2021/03/21 02:35:56;;;;;;;5.80;4.47;;;;;;;7.80;34.96;101626.19;5013937;28;20053;-63
2021/03/21 02:38:31;;;;;;;6.18;4.55;;;;;;;7.76;34.74;101616.75;5014097;28;20042;-64
2021/03/21 02:41:20;;;;;;;6.97;4.03;;;;;;;7.72;34.81;101617.72;5014054;28;20050;-63
2021/03/21 02:43:51;;;;;;;4.80;3.90;;;;;;;7.69;34.99;101616.06;5012808;28;20456;-63
2021/03/21 02:46:39;;;;;;;5.07;4.10;;;;;;;7.67;34.93;101618.72;5014070;28;20081;-64
2021/03/21 02:49:16;;;;;;;6.22;4.35;;;;;;;7.66;35.09;101617.00;5013144;28;20053;-64
2021/03/21 02:51:55;;;;;;;6.78;4.40;;;;;;;7.65;35.25;101609.22;5013742;28;20050;-63
2021/03/21 02:54:50;;;;;;;5.60;4.03;;;;;;;7.65;35.10;101604.00;5013646;28;20104;-63
2021/03/21 02:57:24;;;;;;;5.57;4.13;;;;;;;7.64;34.98;101602.28;5009978;28;20115;-64
2021/03/21 02:59:54;;;;;;;6.55;4.32;;;;;;;7.63;34.94;101600.56;5013861;28;20108;-63
2021/03/21 03:02:26;;;;;;;5.65;4.07;;;;;;;7.62;35.02;101591.91;5013766;28;20072;-64
2021/03/21 03:04:57;;;;;;;6.30;4.47;;;;;;;7.59;34.96;101589.41;5013804;28;20073;-63
2021/03/21 03:07:31;;;;;;;7.05;4.50;;;;;;;7.60;34.74;101598.06;5012746;28;20046;-63
2021/03/21 03:10:05;;;;;;;6.18;4.22;;;;;;;7.59;34.82;101599.84;5013603;28;20076;-63
2021/03/21 03:12:34;;;;;;;6.53;4.63;;;;;;;7.57;34.84;101591.19;5013356;28;20041;-63
2021/03/21 03:15:05;;;;;;;4.68;3.75;;;;;;;7.55;34.79;101586.91;5013398;28;20050;-63
2021/03/21 03:17:43;;;;;;;5.15;3.30;;;;;;;7.51;34.74;101579.16;5013338;28;20053;-64
2021/03/21 03:20:21;;;;;;;4.70;3.75;;;;;;;7.50;34.58;101585.31;5013438;28;20077;-63
2021/03/21 03:23:08;;;;;;;6.18;4.00;;;;;;;7.48;34.57;101575.81;5012404;28;20104;-63
2021/03/21 03:25:48;;;;;;;5.07;3.45;;;;;;;7.48;34.35;101584.47;4993444;28;20478;-63
2021/03/21 03:28:46;;;;;;;5.03;3.40;;;;;;;7.47;34.63;101574.94;4992644;28;20058;-63
2021/03/21 03:31:20;;;;;;;5.15;3.20;;;;;;;7.46;34.74;101572.38;4993507;28;20054;-63
2021/03/21 03:33:48;;;;;;;4.45;3.08;;;;;;;7.44;34.55;101575.03;4992202;28;20046;-63
2021/03/21 03:36:17;;;;;;;5.63;3.38;;;;;;;7.42;34.57;101568.16;4993425;28;20058;-63
2021/03/21 03:38:46;;;;;;;4.03;3.40;;;;;;;7.41;34.56;101559.44;4993323;28;20584;-63
2021/03/21 03:41:26;;;;;;;4.53;3.00;;;;;;;7.41;34.68;101559.44;5011012;28;20058;-63
2021/03/21 03:44:34;;;;;;;7.07;3.47;;;;;;;7.40;34.64;101562.94;5013060;28;20058;-63
2021/03/21 03:47:19;;;;;;;5.35;3.20;;;;;;;7.39;34.70;101566.47;5012912;28;20050;-63
2021/03/21 03:49:53;;;;;;;3.65;3.10;;;;;;;7.38;34.72;101564.78;5012800;28;20046;-63
2021/03/21 03:52:45;;;;;;;3.40;2.67;;;;;;;7.35;34.86;101568.31;5012781;28;20046;-63
2021/03/21 03:55:27;;;;;;;4.75;2.90;;;;;;;7.34;34.95;101563.16;4997258;28;20049;-63
2021/03/21 03:58:07;;;;;;;4.10;3.20;;;;;;;7.32;35.08;101560.56;5011764;28;20478;-64
2021/03/21 04:00:40;;;;;;;7.15;3.60;;;;;;;7.30;35.19;101561.50;5012565;28;20100;-63
2021/03/21 04:03:37;;;;;;;3.70;3.40;;;;;;;7.28;34.93;101565.94;5008498;28;20057;-64
2021/03/21 04:06:25;;;;;;;5.60;3.30;;;;;;;7.26;34.87;101560.78;5009354;28;20049;-63
2021/03/21 04:08:57;;;;;;;3.65;2.78;;;;;;;7.25;34.76;101555.56;5009507;28;20097;-63
2021/03/21 04:11:41;;;;;;;4.65;3.22;;;;;;;7.23;34.78;101560.84;5009235;28;20046;-64
2021/03/21 04:14:47;;;;;;;3.80;3.08;;;;;;;7.20;34.57;101566.19;5009303;28;20108;-63
2021/03/21 04:17:21;;;;;;;3.72;3.03;;;;;;;7.17;34.42;101561.91;4948033;28;20106;-63
2021/03/21 04:19:54;;;;;;;3.60;2.90;;;;;;;7.15;34.30;101562.84;5000712;28;20054;-64
2021/03/21 04:22:26;;;;;;;3.78;3.15;;;;;;;7.12;34.03;101558.56;5009342;28;20104;-64
2021/03/21 04:25:17;;;;;;;3.95;3.00;;;;;;;7.11;33.83;101562.06;5008861;28;20099;-64
2021/03/21 04:28:04;;;;;;;3.28;2.55;;;;;;;7.10;33.75;101559.53;5009146;28;20060;-63
2021/03/21 04:30:39;;;;;;;4.38;2.95;;;;;;;7.08;33.47;101556.94;5008789;28;20061;-63
2021/03/21 04:33:09;;;;;;;3.42;2.55;;;;;;;7.08;33.32;101556.94;5008353;28;20049;-64
2021/03/21 04:35:44;;;;;;;4.30;2.90;;;;;;;7.08;33.26;101548.25;5008802;28;20042;-63
2021/03/21 04:38:18;;;;;;;4.15;3.00;;;;;;;7.08;33.31;101545.66;5009112;28;20049;-64
2021/03/21 04:40:48;;;;;;;3.10;2.60;;;;;;;7.06;33.39;101534.38;5012273;28;20050;-63
2021/03/21 04:43:25;;;;;;;4.57;3.10;;;;;;;7.06;33.33;101542.22;5013036;28;20054;-63
2021/03/21 04:45:56;;;;;;;5.82;2.60;;;;;;;7.03;33.14;101538.81;5028172;28;20053;-63
2021/03/21 04:48:25;;;;;;;6.15;3.30;;;;;;;7.01;33.35;101543.22;5012786;28;20096;-63
2021/03/21 04:51:00;;;;;;;3.88;2.33;;;;;;;7.02;33.34;101546.66;5011973;28;20058;-63
2021/03/21 04:53:35;;;;;;;5.78;3.08;;;;;;;7.01;33.21;101543.22;5012574;28;20115;-64
2021/03/21 04:56:11;;;;;;;4.13;3.03;;;;;;;7.00;33.23;101536.28;5012625;28;20054;-63
2021/03/21 04:58:42;;;;;;;3.83;2.75;;;;;;;6.99;33.16;101534.56;5012615;28;20432;-63
2021/03/21 05:01:24;;;;;;;5.15;2.60;;;;;;;6.98;33.33;101529.38;5012506;28;20050;-64
2021/03/21 05:04:16;;;;;;;5.35;2.70;;;;;;;6.96;33.45;101537.28;5012319;28;20057;-63
2021/03/21 05:07:15;;;;;;;5.05;2.60;;;;;;;6.94;33.41;101538.22;5012372;28;20054;-64
2021/03/21 05:09:48;;;;;;;4.50;2.78;;;;;;;6.92;33.23;101540.88;5011196;28;20615;-63
2021/03/21 05:12:40;;;;;;;5.43;2.83;;;;;;;6.92;33.32;101537.38;5012446;28;20387;-61
2021/03/21 05:15:11;;;;;;;2.85;2.47;;;;;;;6.90;33.51;101537.44;5012212;28;20468;-61
2021/03/21 05:18:16;;;;;;;3.70;2.30;;;;;;;6.90;33.28;101541.81;5012013;28;20050;-62
2021/03/21 05:21:03;;;;;;;3.92;2.70;;;;;;;6.90;33.28;101541.81;5012037;28;20042;-61
2021/03/21 05:23:37;;;;;;;2.88;2.45;;;;;;;6.90;33.20;101542.66;5010864;28;20065;-61
2021/03/21 05:26:09;;;;;;;4.38;3.25;;;;;;;6.88;33.54;101554.88;4992400;28;20054;-61
2021/03/21 05:28:57;;;;;;;4.63;3.03;;;;;;;6.88;33.88;101551.44;4992486;28;20052;-62
2021/03/21 05:31:25;;;;;;;4.45;2.70;;;;;;;6.86;33.86;101554.94;4992383;28;20096;-62
2021/03/21 05:33:52;;;;;;;3.80;2.90;;;;;;;6.85;34.09;101554.97;4992634;28;20050;-62
2021/03/21 05:36:43;;;;;;;4.15;3.20;;;;;;;6.83;34.04;101546.31;4992324;28;20081;-61
2021/03/21 05:39:27;;;;;;;5.05;3.30;;;;;;;6.84;34.69;101551.53;4992367;28;20108;-61
2021/03/21 05:42:39;;;;;;;3.90;3.50;;;;;;;6.86;34.56;101551.47;5003572;28;20498;-62
2021/03/21 05:45:43;;;;;;;5.00;3.25;;;;;;;6.88;34.46;101554.88;5011581;28;20050;-61
2021/03/21 05:48:37;;;;;;;4.45;3.03;;;;;;;6.91;34.50;101553.94;5011734;28;20061;-62
2021/03/21 05:51:19;;;;;;;4.93;2.97;;;;;;;6.93;34.44;101550.41;5010722;28;20058;-61
2021/03/21 05:53:57;;;;;;;3.67;2.65;;;;;;;6.96;34.47;101552.09;5011605;28;20054;-61
2021/03/21 05:56:44;;;;;;;5.28;3.38;;;;;;;6.97;34.42;101552.03;5007665;28;20057;-61
2021/03/21 05:59:34;;;;;;;7.22;3.40;;;;;;;6.98;34.32;101545.03;4999519;28;20050;-61
2021/03/21 06:02:20;;;;;;;5.10;2.90;;;;;;;7.00;34.41;101538.03;5001711;28;20052;-61
2021/03/21 06:05:24;;;;;;;4.18;3.13;;;;;;;7.02;34.36;101547.53;5011000;28;20054;-61
2021/03/21 06:08:08;;;;;;;6.88;3.80;;;;;;;7.05;34.07;101546.59;5011183;28;20045;-62
2021/03/21 06:11:01;;;;;;;6.25;3.10;;;;;;;7.05;34.36;101540.50;5011213;28;20049;-62
2021/03/21 06:13:35;;;;;;;6.28;3.25;;;;;;;7.08;34.35;101546.50;5011368;28;20445;-61
2021/03/21 06:16:04;;;;;;;3.08;2.70;;;;;;;7.08;34.36;101543.88;5010406;28;20413;-62
2021/03/21 06:19:07;;;;;;;3.85;2.92;;;;;;;7.11;34.25;101545.53;5011084;28;20080;-61
2021/03/21 06:21:54;;;;;;;3.22;2.55;;;;;;;7.12;33.97;101549.88;5010999;28;20552;-61
2021/03/21 06:24:42;;;;;;;3.75;3.05;;;;;;;7.12;34.08;101553.34;5010820;28;20046;-61
2021/03/21 06:27:51;;;;;;;5.82;3.15;;;;;;;7.14;33.96;101550.69;5010994;28;20132;-61
2021/03/21 06:30:26;;;;;;;4.93;2.80;;;;;;;7.15;33.97;101550.63;5010939;28;20064;-61
2021/03/21 06:33:06;;;;;;;4.23;3.00;;;;;;;7.18;33.96;101555.75;5010089;28;20042;-61
2021/03/21 06:36:01;;;;;;;4.78;2.95;;;;;;;7.21;34.10;101556.56;5010707;28;20049;-63
2021/03/21 06:38:59;;;;;;;4.30;2.85;;;;;;;7.22;33.99;101566.97;5010813;28;20061;-63
2021/03/21 06:41:53;;;;;;;5.40;2.65;;;;;;;7.27;33.83;101559.00;5010657;28;20107;-63
2021/03/21 06:44:32;;;;;;;4.57;2.92;;;;;;;7.29;33.63;101560.69;5010539;28;20046;-62
2021/03/21 06:47:33;;;;;;;6.20;3.03;;;;;;;7.34;33.26;101556.16;5010360;28;20108;-62
2021/03/21 06:50:15;;;;;;;4.18;2.72;;;;;;;7.40;33.29;101549.06;4994327;28;20052;-63
2021/03/21 06:52:50;;;;;;;4.32;3.03;;;;;;;7.48;33.07;101552.31;5010329;28;20045;-63
2021/03/21 06:55:41;;;;;;;5.05;2.85;;;;;;;7.58;33.13;101548.50;5010593;28;20124;-63
2021/03/21 06:58:35;;;;;;;4.90;2.90;;;;;;;7.71;32.91;101543.72;5010522;28;20461;-63
2021/03/21 07:01:18;;;;;;;6.50;3.15;;;;;;;7.84;32.80;101550.25;5009932;28;20112;-64
2021/03/21 07:04:00;;;;;;;4.18;2.80;;;;;;;7.97;32.91;101537.69;5010174;28;20081;-64
2021/03/21 07:06:38;;;;;;;5.43;2.65;;;;;;;8.06;32.72;101540.88;5009321;28;20421;-63
2021/03/21 07:09:07;;;;;;;5.28;2.85;;;;;;;8.16;32.60;101537.91;5010140;28;20050;-63
2021/03/21 07:12:01;;;;;;;3.42;3.00;;;;;;;8.27;32.50;101527.06;5010185;28;20096;-64
2021/03/21 07:15:06;;;;;;;4.95;3.20;;;;;;;8.38;32.33;101525.84;5010254;28;20128;-63
2021/03/21 07:17:56;;;;;;;4.40;2.90;;;;;;;8.53;32.12;101525.34;5010036;28;20497;-64
2021/03/21 07:20:41;;;;;;;4.13;2.92;;;;;;;8.64;32.02;101517.13;5010176;28;20119;-63
2021/03/21 07:23:26;;;;;;;2.47;1.70;;;;;;;8.72;31.13;101522.91;5009859;28;20085;-64
2021/03/21 07:25:56;;;;;;;2.13;1.80;;;;;;;8.79;30.56;101520.94;5010131;28;20054;-64
2021/03/21 07:28:37;;;;;;;1.75;1.50;;;;;;;8.87;29.53;101526.75;5009414;28;20050;-63
2021/03/21 07:31:28;;;;;;;2.90;2.05;;;;;;;8.95;29.04;101519.47;5008564;28;20502;-64
2021/03/21 07:33:54;;;;;;;3.53;2.15;;;;;;;9.03;28.64;101523.53;5009914;28;20056;-63
2021/03/21 07:36:43;;;;;;;2.58;2.10;;;;;;;9.08;28.21;101522.47;5009869;28;20124;-63
2021/03/21 07:40:06;;;;;;;2.95;2.20;;;;;;;9.20;28.02;101515.06;5009404;28;20050;-63
2021/03/21 07:42:55;;;;;;;3.08;2.22;;;;;;;9.31;27.90;101505.03;4967986;28;20050;-64
2021/03/21 07:45:39;;;;;;;2.47;1.92;;;;;;;9.42;27.98;101510.72;4949187;29;20091;-63
2021/03/21 07:48:39;;;;;;;4.32;2.25;;;;;;;9.52;28.03;101500.69;4984755;28;20057;-64
2021/03/21 07:51:26;;;;;;;2.72;2.10;;;;;;;9.63;28.08;101501.13;4989999;28;20046;-63
2021/03/21 07:54:08;;;;;;;2.58;2.20;;;;;;;9.72;27.98;101496.44;4990064;28;20054;-63
2021/03/21 07:56:50;;;;;;;2.80;2.20;;;;;;;9.83;28.11;101498.59;4989760;28;20046;-63
2021/03/21 07:59:23;;;;;;;3.10;2.33;;;;;;;9.92;28.22;101504.31;4990228;28;20082;-63
2021/03/21 08:01:51;;;;;;;3.22;2.28;;;;;;;10.03;28.28;101500.38;5001103;28;20100;-63
2021/03/21 08:04:35;;;;;;;4.35;2.90;;;;;;;10.13;28.21;101501.69;5009237;28;20141;-63
2021/03/21 08:07:14;;;;;;;3.40;2.42;;;;;;;10.22;27.95;101498.69;5009284;28;20132;-63
2021/03/21 08:09:43;;;;;;;3.58;2.53;;;;;;;10.29;28.00;101501.91;5009517;28;20052;-63
2021/03/21 08:12:18;;;;;;;3.65;2.70;;;;;;;10.37;28.23;101505.06;5009404;28;20417;-63
2021/03/21 08:14:48;;;;;;;4.90;2.90;;;;;;;10.49;28.36;101497.56;5008946;28;20396;-63
2021/03/21 08:17:41;;;;;;;4.57;3.10;;;;;;;10.57;28.50;101498.94;5008925;28;20050;-63
2021/03/21 08:20:21;;;;;;;4.45;3.05;;;;;;;10.65;28.20;101490.72;5007510;28;20140;-63
2021/03/21 08:22:49;;;;;;;3.97;3.15;;;;;;;10.75;28.21;101478.91;5009317;28;20045;-63
2021/03/21 08:25:30;;;;;;;4.85;2.95;;;;;;;10.88;28.18;101478.31;5009308;28;20088;-63
2021/03/21 08:27:57;;;;;;;3.90;3.05;;;;;;;10.99;28.28;101483.94;5009120;28;20050;-63
2021/03/21 08:30:27;;;;;;;4.72;3.00;;;;;;;11.09;28.07;101482.59;5009214;28;20054;-63
2021/03/21 08:33:26;;;;;;;5.53;3.33;;;;;;;11.18;27.95;101480.47;5009308;28;20096;-63
2021/03/21 08:36:11;;;;;;;3.75;2.83;;;;;;;11.24;27.84;101472.28;5007558;28;20046;-69
2021/03/21 08:38:40;;;;;;;3.80;2.95;;;;;;;11.27;28.02;101480.00;5006923;28;20494;-67
2021/03/21 08:41:07;;;;;;;3.67;3.15;;;;;;;11.33;27.90;101468.38;5008518;28;20046;-68
2021/03/21 08:43:37;;;;;;;4.28;3.08;;;;;;;11.38;27.57;101463.75;5008863;28;20046;-69
2021/03/21 08:46:30;;;;;;;3.63;2.65;;;;;;;11.49;27.31;101468.47;5008819;28;20049;-68
2021/03/21 08:49:15;;;;;;;4.30;2.70;;;;;;;11.59;27.14;101460.06;5007574;28;20244;-69
2021/03/21 08:51:42;;;;;;;3.50;2.67;;;;;;;11.71;26.69;101457.75;5006085;28;20096;-68
2021/03/21 08:54:22;;;;;;;4.82;3.20;;;;;;;11.85;26.45;101460.53;5007517;28;20461;-68
2021/03/21 08:57:05;;;;;;;3.95;3.20;;;;;;;11.91;26.62;101457.59;5006812;28;20127;-66
2021/03/21 08:59:39;;;;;;;5.00;3.35;;;;;;;11.88;26.46;101459.53;5007036;28;20049;-69
2021/03/21 09:02:12;;;;;;;5.28;3.85;;;;;;;11.97;26.34;101459.06;5006339;28;20038;-66
2021/03/21 09:05:01;;;;;;;6.35;3.45;;;;;;;12.11;26.23;101447.84;5007763;28;20081;-67
2021/03/21 09:07:36;;;;;;;4.55;3.13;;;;;;;12.27;25.71;101441.81;5006595;28;20046;-66
2021/03/21 09:10:11;;;;;;;5.55;3.40;;;;;;;12.41;25.46;101447.19;5005377;28;20057;-63
2021/03/21 09:12:42;;;;;;;5.83;2.73;;;;;;;12.52;25.27;101439.56;5007378;28;20049;-71
2021/03/21 09:15:18;;;;;;;3.92;3.10;;;;;;;12.67;25.31;101443.16;5023511;28;20056;-69
2021/03/21 09:18:00;;;;;;;3.72;2.97;;;;;;;12.85;24.78;101433.41;5008555;28;20045;-69
2021/03/21 09:20:28;;;;;;;4.10;3.30;;;;;;;13.01;24.38;101427.28;5008536;28;20058;-68
2021/03/21 09:22:55;;;;;;;6.15;3.63;;;;;;;13.21;24.37;101431.41;5008877;28;20054;-69
2021/03/21 09:25:28;;;;;;;4.85;3.42;;;;;;;13.37;24.16;101420.91;5008546;28;20061;-69
2021/03/21 09:27:56;;;;;;;6.40;2.78;;;;;;;13.53;24.40;101421.72;5011868;28;20502;-73
2021/03/21 09:30:44;;;;;;;4.63;3.58;;;;;;;13.78;25.72;101420.25;5011469;28;20050;-68
2021/03/21 09:33:17;;;;;;;3.83;3.40;;;;;;;13.92;24.52;101411.50;5011491;28;20046;-66
2021/03/21 09:35:58;;;;;;;4.75;3.72;;;;;;;14.07;23.67;101408.88;5010951;28;20046;-65
2021/03/21 09:38:28;;;;;;;14.50;10.30;;;;;;;14.18;23.12;101399.38;5011405;28;20057;-67
2021/03/21 09:41:02;;;;;;;6.05;4.18;;;;;;;14.29;22.70;101397.88;5011952;28;20045;-66
2021/03/21 09:43:35;;;;;;;3.00;2.70;;;;;;;14.48;22.75;101402.84;5011509;28;20046;-69
2021/03/21 09:46:08;;;;;;;6.57;2.30;;;;;;;14.66;22.52;101390.31;5010752;28;20050;-66
2021/03/21 09:48:44;;;;;;;4.32;2.38;;;;;;;14.91;25.42;101376.38;5011525;28;20052;-65
2021/03/21 09:51:22;;;;;;;4.10;1.90;;;;;;;15.11;26.77;101374.19;5011377;28;20133;-63
2021/03/21 09:53:48;;;;;;;3.15;2.08;;;;;;;15.15;26.44;101378.38;5011277;28;20053;-65
2021/03/21 09:56:44;;;;;;;5.45;1.80;;;;;;;15.16;28.12;101367.69;5011620;28;20045;-64
2021/03/21 09:59:26;;;;;;;4.80;2.20;;;;;;;15.31;28.98;101365.81;5011741;28;20041;-63
2021/03/21 10:02:10;;;;;;;4.20;2.00;;;;;;;15.27;27.33;101364.31;5010715;28;20046;-64
2021/03/21 10:04:52;;;;;;;5.32;2.75;;;;;;;15.29;27.26;101367.72;5011056;28;20061;-63
2021/03/21 10:07:48;;;;;;;4.70;2.05;;;;;;;15.41;27.08;101362.53;5011432;28;20108;-65
2021/03/21 10:10:29;;;;;;;2.53;2.20;;;;;;;15.51;26.19;101359.19;5011425;28;20065;-66
2021/03/21 10:12:55;;;;;;;3.03;2.28;;;;;;;15.60;25.61;101352.41;5011611;28;20056;-66
2021/03/21 10:15:27;;;;;;;3.58;2.60;;;;;;;15.76;25.68;101349.56;5010881;28;20050;-66
2021/03/21 10:17:59;;;;;;;5.80;2.25;;;;;;;15.87;25.01;101351.53;5010201;28;20061;-65
2021/03/21 10:21:03;;;;;;;3.65;2.60;;;;;;;15.93;23.70;101350.22;5011155;28;20050;-65
2021/03/21 10:23:47;;;;;;;3.60;2.03;;;;;;;16.05;23.74;101346.72;4989922;28;20046;-65
2021/03/21 10:26:14;;;;;;;3.53;2.65;;;;;;;16.25;24.70;101336.50;5010601;28;20077;-66
2021/03/21 10:28:45;;;;;;;3.70;2.05;;;;;;;16.39;25.04;101328.44;5001295;28;20445;-66
2021/03/21 10:31:27;;;;;;;3.78;2.58;;;;;;;16.48;23.15;101319.81;5026029;28;20490;-65
2021/03/21 10:34:15;;;;;;;4.00;2.80;;;;;;;16.48;21.06;101322.47;5010704;28;20172;-65
2021/03/21 10:36:43;;;;;;;5.65;4.13;;;;;;;16.53;19.10;101313.34;5009221;28;20073;-65
2021/03/21 10:39:39;;;;;;;4.75;3.03;;;;;;;16.54;18.82;101315.03;5010596;28;20049;-65
2021/03/21 10:42:05;;;;;;;4.97;3.28;;;;;;;16.59;18.03;101308.44;5010798;28;20454;-66
2021/03/21 10:44:34;;;;;;;4.38;3.38;;;;;;;16.70;18.09;101297.06;5010664;28;20053;-66
2021/03/21 10:47:12;;;;;;;3.60;2.97;;;;;;;16.83;17.74;101293.50;5010583;28;20053;-65
2021/03/21 10:49:53;;;;;;;5.95;2.95;;;;;;;16.84;17.94;101290.72;5010704;28;20053;-65
2021/03/21 10:52:44;;;;;;;2.95;2.53;;;;;;;16.82;17.19;101282.03;5009052;28;20049;-66
2021/03/21 10:55:10;;;;;;;3.25;2.88;;;;;;;16.83;16.77;101277.59;5010000;28;20124;-65
2021/03/21 10:57:45;;;;;;;4.18;3.42;;;;;;;16.83;17.01;101267.00;5010006;28;20045;-64
2021/03/21 11:00:30;;;;;;;5.28;3.60;;;;;;;16.81;18.14;101267.94;5007941;28;20046;-65
2021/03/21 11:02:59;;;;;;;4.57;3.60;;;;;;;16.81;17.35;101273.25;5010424;28;20054;-66
2021/03/21 11:05:43;;;;;;;3.20;2.80;;;;;;;16.79;16.90;101261.91;5009793;28;20049;-63
2021/03/21 11:08:12;;;;;;;4.93;2.90;;;;;;;16.72;16.52;101259.84;5008462;28;20056;-65
2021/03/21 11:10:40;;;;;;;2.95;2.60;;;;;;;16.58;16.28;101258.22;5009337;28;20037;-66
2021/03/21 11:13:10;;;;;;;3.42;2.95;;;;;;;16.60;16.12;101254.47;5008698;28;20112;-67
2021/03/21 11:15:36;;;;;;;3.75;2.83;;;;;;;16.74;16.01;101255.28;5007185;28;20050;-68
2021/03/21 11:18:07;;;;;;;3.08;2.63;;;;;;;16.64;15.14;101248.00;5008889;28;20045;-69
2021/03/21 11:20:37;;;;;;;3.80;2.90;;;;;;;16.71;15.14;101245.75;5008510;28;20128;-68
2021/03/21 11:23:17;;;;;;;4.20;3.28;;;;;;;16.85;15.04;101247.38;5008614;28;20057;-69
2021/03/21 11:25:44;;;;;;;2.58;2.38;;;;;;;17.03;14.93;101239.84;5005597;28;20576;-70
2021/03/21 11:28:23;;;;;;;5.65;3.72;;;;;;;17.34;14.73;101234.81;5007661;28;20042;-69
2021/03/21 11:30:52;;;;;;;3.30;3.00;;;;;;;17.58;14.65;101234.72;5007465;28;20060;-67
2021/03/21 11:33:34;;;;;;;3.90;2.90;;;;;;;17.77;14.92;101234.09;5008391;28;20445;-67
2021/03/21 11:36:12;;;;;;;3.25;2.95;;;;;;;17.90;15.01;101217.22;5009111;28;20065;-65
2021/03/21 11:38:40;;;;;;;5.05;4.00;;;;;;;18.01;14.92;101209.25;5007764;28;20045;-66
2021/03/21 11:41:23;;;;;;;4.78;3.70;;;;;;;18.12;14.54;101213.72;5008113;28;20081;-68
2021/03/21 11:43:50;;;;;;;3.47;2.88;;;;;;;18.15;14.40;101217.94;5006482;28;20042;-68
2021/03/21 11:46:30;;;;;;;3.63;2.80;;;;;;;18.11;14.16;101210.19;5007722;28;20526;-68
2021/03/21 11:48:58;;;;;;;3.05;2.72;;;;;;;18.16;14.03;101204.50;5007636;28;20054;-68
2021/03/21 11:51:26;;;;;;;4.80;3.10;;;;;;;18.26;14.32;101196.66;5008673;28;20046;-68
2021/03/21 11:53:53;;;;;;;4.07;3.10;;;;;;;18.33;14.42;101189.84;5004113;28;20457;-69
2021/03/21 11:56:32;;;;;;;3.28;2.97;;;;;;;18.22;13.43;101182.75;5009396;28;20102;-67
2021/03/21 11:59:06;;;;;;;3.60;3.30;;;;;;;18.26;13.49;101181.53;4996139;28;20548;-69
2021/03/21 12:01:42;;;;;;;3.65;3.05;;;;;;;18.38;14.03;101176.19;5007426;28;20049;-67
2021/03/21 12:04:17;;;;;;;3.78;3.05;;;;;;;18.55;14.11;101172.97;5008796;28;20176;-67
2021/03/21 12:06:58;;;;;;;4.28;2.80;;;;;;;18.66;13.64;101168.56;5008778;28;20141;-69
2021/03/21 12:09:34;;;;;;;3.47;2.90;;;;;;;18.70;13.31;101156.69;5006070;28;20506;-69
2021/03/21 12:12:05;;;;;;;2.70;2.30;;;;;;;18.75;13.55;101152.69;5009257;28;20046;-69
2021/03/21 12:14:31;;;;;;;4.32;3.75;;;;;;;18.77;12.94;101141.91;5008078;28;20046;-69
2021/03/21 12:17:16;;;;;;;2.83;2.30;;;;;;;18.84;12.93;101140.41;5008977;28;20562;-71
2021/03/21 12:19:42;;;;;;;3.00;2.63;;;;;;;18.93;12.73;101131.69;5009444;28;20058;-69